Time;durP1;ratioP1;P1;durP2;ratioP2;P2;SDS_P1;SDS_P2;PMS_P1;PMS_P2;Temp;Humidity;BMP_temperature;BMP_pressure;BME280_temperature;BME280_humidity;BME280_pressure;Samples;Min_cycle;Max_cycle;Signal;HPM_P1;HPM_P2
2021/03/15 00:01:52;;;;;;;4.50;2.13;;;;;;;;;;5132886;27;20214;-73
2021/03/15 00:04:18;;;;;;;3.90;2.05;;;;;;;;;;5133001;28;20220;-74
2021/03/15 00:06:44;;;;;;;2.97;1.67;;;;;;;;;;5133203;28;20205;-74
2021/03/15 00:09:10;;;;;;;2.28;1.75;;;;;;;;;;5133270;28;20210;-73
2021/03/15 00:11:37;;;;;;;6.05;1.80;;;;;;;;;;5132976;27;20252;-73
2021/03/15 00:14:04;;;;;;;4.53;2.13;;;;;;;;;;5149761;27;20536;-73
2021/03/15 00:16:30;;;;;;;3.45;2.03;;;;;;;;;;5132639;28;20187;-72
2021/03/15 00:18:56;;;;;;;3.78;1.98;;;;;;;;;;5133035;28;20260;-72
2021/03/15 00:21:22;;;;;;;4.53;2.60;;;;;;;;;;5132907;28;20208;-74
2021/03/15 00:23:49;;;;;;;6.10;2.38;;;;;;;;;;5132629;28;20420;-74
2021/03/15 00:26:15;;;;;;;2.10;1.70;;;;;;;;;;5132755;28;20560;-74
2021/03/15 00:28:41;;;;;;;3.03;2.58;;;;;;;;;;5135582;27;20189;-74
2021/03/15 00:31:08;;;;;;;3.65;2.50;;;;;;;;;;5153450;27;20196;-73
2021/03/15 00:33:34;;;;;;;3.35;2.60;;;;;;;;;;5153474;27;20182;-73
2021/03/15 00:36:00;;;;;;;5.87;1.80;;;;;;;;;;5153354;27;20244;-73
2021/03/15 00:38:26;;;;;;;6.40;2.30;;;;;;;;;;5153282;27;20517;-73
2021/03/15 00:40:52;;;;;;;3.15;1.95;;;;;;;;;;5153538;27;20205;-73
2021/03/15 00:43:18;;;;;;;2.30;2.10;;;;;;;;;;5152488;27;20186;-73
2021/03/15 00:45:44;;;;;;;1.60;1.48;;;;;;;;;;5153320;27;20297;-71
2021/03/15 00:48:11;;;;;;;4.00;1.90;;;;;;;;;;5153563;27;20679;-73
2021/03/15 00:50:41;;;;;;;2.10;1.90;;;;;;;;;;5152871;27;20217;-72
2021/03/15 00:53:07;;;;;;;3.45;1.80;;;;;;;;;;5153289;27;20200;-73
2021/03/15 00:55:33;;;;;;;1.75;1.65;;;;;;;;;;5152959;27;20313;-73
2021/03/15 00:57:59;;;;;;;10.70;2.38;;;;;;;;;;5152895;27;20222;-73
2021/03/15 01:00:28;;;;;;;2.10;1.60;;;;;;;;;;5155300;27;20817;-71
2021/03/15 01:02:54;;;;;;;4.03;1.90;;;;;;;;;;5156413;27;20453;-73
2021/03/15 01:05:22;;;;;;;4.60;2.03;;;;;;;;;;5156875;27;20670;-73
2021/03/15 01:07:49;;;;;;;3.00;2.55;;;;;;;;;;5156370;27;20258;-73
2021/03/15 01:10:15;;;;;;;5.32;2.17;;;;;;;;;;5156367;27;20203;-73
2021/03/15 01:12:41;;;;;;;4.13;2.10;;;;;;;;;;5155143;27;20198;-73
2021/03/15 01:15:09;;;;;;;4.32;2.15;;;;;;;;;;5156359;27;20439;-73
2021/03/15 01:17:35;;;;;;;5.30;1.80;;;;;;;;;;5156373;27;20198;-73
2021/03/15 01:20:01;;;;;;;3.58;2.03;;;;;;;;;;5156269;27;20228;-73
2021/03/15 01:22:29;;;;;;;4.38;1.40;;;;;;;;;;5156679;27;20589;-73
2021/03/15 01:24:55;;;;;;;1.95;1.60;;;;;;;;;;5156810;27;20208;-73
2021/03/15 01:27:21;;;;;;;5.35;1.65;;;;;;;;;;5155376;27;20198;-74
2021/03/15 01:29:47;;;;;;;2.00;1.80;;;;;;;;;;5155541;27;20186;-74
2021/03/15 01:32:13;;;;;;;5.13;1.98;;;;;;;;;;5156356;27;20190;-73
2021/03/15 01:34:39;;;;;;;2.97;1.98;;;;;;;;;;5156086;27;20625;-73
2021/03/15 01:37:05;;;;;;;2.55;1.50;;;;;;;;;;5155733;27;20233;-73
2021/03/15 01:39:32;;;;;;;3.38;2.03;;;;;;;;;;5156044;27;20197;-72
2021/03/15 01:41:58;;;;;;;3.35;1.30;;;;;;;;;;5147618;27;20281;-72
2021/03/15 01:44:24;;;;;;;3.53;1.60;;;;;;;;;;5134961;27;20233;-73
2021/03/15 01:46:51;;;;;;;2.38;1.70;;;;;;;;;;5135112;27;20193;-74
2021/03/15 01:49:16;;;;;;;6.07;2.13;;;;;;;;;;5134938;27;20593;-73
2021/03/15 01:51:43;;;;;;;6.40;1.10;;;;;;;;;;5134821;27;20282;-73
2021/03/15 01:54:09;;;;;;;3.40;1.70;;;;;;;;;;5135161;27;20440;-73
2021/03/15 01:56:38;;;;;;;5.40;2.05;;;;;;;;;;5134925;27;20203;-73
2021/03/15 01:59:04;;;;;;;3.22;1.50;;;;;;;;;;5134450;27;20226;-73
2021/03/15 02:01:30;;;;;;;2.90;1.23;;;;;;;;;;5134512;27;20222;-74
2021/03/15 02:03:56;;;;;;;2.60;1.87;;;;;;;;;;5134570;27;20190;-72
2021/03/15 02:06:22;;;;;;;4.60;1.40;;;;;;;;;;5134447;27;20463;-73
2021/03/15 02:08:48;;;;;;;5.77;1.60;;;;;;;;;;5134557;27;20424;-73
2021/03/15 02:11:18;;;;;;;9.02;1.73;;;;;;;;;;5134679;27;20444;-74
2021/03/15 02:13:58;;;;;;;3.50;2.22;;;;;;;;;;5134344;27;20240;-73
2021/03/15 02:16:28;;;;;;;4.43;1.95;;;;;;;;;;5134480;27;20198;-73
2021/03/15 02:18:59;;;;;;;2.00;1.70;;;;;;;;;;5134636;27;20206;-73
2021/03/15 02:21:48;;;;;;;4.28;1.70;;;;;;;;;;5134094;27;20209;-73
2021/03/15 02:24:19;;;;;;;2.22;1.50;;;;;;;;;;5134540;27;20234;-73
2021/03/15 02:27:06;;;;;;;4.00;1.48;;;;;;;;;;5134104;27;20222;-74
2021/03/15 02:29:59;;;;;;;2.88;1.60;;;;;;;;;;5134201;27;20202;-73
2021/03/15 02:32:45;;;;;;;1.90;1.40;;;;;;;;;;5085663;27;20671;-73
2021/03/15 02:35:13;;;;;;;3.47;1.50;;;;;;;;;;5133956;27;20630;-72
2021/03/15 02:37:41;;;;;;;7.43;1.77;;;;;;;;;;5133799;27;20214;-73
2021/03/15 02:40:09;;;;;;;6.97;2.40;;;;;;;;;;5150501;27;20205;-74
2021/03/15 02:42:36;;;;;;;4.18;1.85;;;;;;;;;;5154697;27;20213;-72
2021/03/15 02:45:02;;;;;;;3.65;2.20;;;;;;;;;;5154833;27;20185;-73
2021/03/15 02:47:28;;;;;;;2.88;2.20;;;;;;;;;;5154453;27;20212;-72
2021/03/15 02:49:57;;;;;;;2.05;1.77;;;;;;;;;;5154353;27;20182;-73
2021/03/15 02:52:24;;;;;;;5.97;2.17;;;;;;;;;;5154233;27;20198;-73
2021/03/15 02:54:50;;;;;;;2.90;2.40;;;;;;;;;;5154026;27;20222;-73
2021/03/15 02:57:16;;;;;;;5.53;2.10;;;;;;;;;;5154466;27;20618;-74
2021/03/15 02:59:44;;;;;;;4.70;2.40;;;;;;;;;;5154191;27;20202;-73
2021/03/15 03:02:10;;;;;;;3.20;2.30;;;;;;;;;;5154160;27;20198;-73
2021/03/15 03:04:37;;;;;;;4.30;2.42;;;;;;;;;;5152628;27;20560;-72
2021/03/15 03:07:04;;;;;;;12.48;3.15;;;;;;;;;;5154588;27;20596;-73
2021/03/15 03:09:32;;;;;;;3.30;2.50;;;;;;;;;;5154087;27;20183;-72
2021/03/15 03:11:58;;;;;;;8.35;2.50;;;;;;;;;;5153859;27;20236;-73
2021/03/15 03:14:26;;;;;;;2.78;2.25;;;;;;;;;;5154324;27;20248;-73
2021/03/15 03:16:53;;;;;;;3.60;1.80;;;;;;;;;;5154046;27;20680;-73
2021/03/15 03:19:19;;;;;;;2.72;2.22;;;;;;;;;;5153696;27;20265;-73
2021/03/15 03:21:46;;;;;;;3.63;2.17;;;;;;;;;;5154114;27;20596;-73
2021/03/15 03:24:13;;;;;;;4.63;2.25;;;;;;;;;;5153769;27;20621;-73
2021/03/15 03:26:41;;;;;;;3.60;1.83;;;;;;;;;;5153949;27;20580;-72
2021/03/15 03:29:07;;;;;;;2.65;1.52;;;;;;;;;;5149277;27;20186;-73
2021/03/15 03:31:34;;;;;;;6.15;1.52;;;;;;;;;;5153792;27;20192;-73
2021/03/15 03:34:01;;;;;;;2.50;2.30;;;;;;;;;;5153978;27;20673;-73
2021/03/15 03:36:27;;;;;;;4.10;1.63;;;;;;;;;;5153697;27;20231;-73
2021/03/15 03:38:53;;;;;;;3.75;2.38;;;;;;;;;;5153685;27;20231;-72
2021/03/15 03:41:19;;;;;;;1.88;1.52;;;;;;;;;;5154016;27;20205;-73
2021/03/15 03:43:46;;;;;;;1.83;1.50;;;;;;;;;;5154017;27;20623;-73
2021/03/15 03:46:14;;;;;;;5.22;2.75;;;;;;;;;;5153425;27;20481;-74
2021/03/15 03:48:40;;;;;;;2.72;1.77;;;;;;;;;;5153663;27;20203;-73
2021/03/15 03:51:06;;;;;;;2.85;1.73;;;;;;;;;;5153478;27;20196;-73
2021/03/15 03:53:37;;;;;;;3.35;2.03;;;;;;;;;;5153482;27;20189;-73
2021/03/15 03:56:05;;;;;;;3.47;2.08;;;;;;;;;;5153426;27;20209;-73
2021/03/15 03:58:31;;;;;;;4.40;1.73;;;;;;;;;;5133047;28;20575;-74
2021/03/15 04:00:59;;;;;;;3.53;1.50;;;;;;;;;;5133236;28;20202;-73
2021/03/15 04:03:28;;;;;;;3.38;2.10;;;;;;;;;;5132891;28;20562;-73
2021/03/15 04:05:57;;;;;;;1.95;1.80;;;;;;;;;;5133127;28;20224;-72
2021/03/15 04:08:25;;;;;;;1.33;1.20;;;;;;;;;;5133088;28;20890;-73
2021/03/15 04:10:52;;;;;;;1.17;1.08;;;;;;;;;;5134384;27;20552;-72
2021/03/15 04:13:19;;;;;;;3.40;1.73;;;;;;;;;;5132835;28;20774;-72
2021/03/15 04:15:46;;;;;;;1.38;1.27;;;;;;;;;;5133242;27;20242;-73
2021/03/15 04:18:13;;;;;;;1.15;1.05;;;;;;;;;;5132884;28;20599;-73
2021/03/15 04:20:41;;;;;;;2.38;1.20;;;;;;;;;;5132987;27;20201;-72
2021/03/15 04:23:10;;;;;;;2.50;1.13;;;;;;;;;;5132481;28;20211;-72
2021/03/15 04:25:38;;;;;;;1.80;1.35;;;;;;;;;;5133054;27;20627;-73
2021/03/15 04:28:05;;;;;;;3.85;2.40;;;;;;;;;;5132850;28;20597;-73
2021/03/15 04:30:31;;;;;;;3.55;1.65;;;;;;;;;;5132543;28;20193;-73
2021/03/15 04:32:57;;;;;;;3.83;1.67;;;;;;;;;;5132818;28;20661;-73
2021/03/15 04:35:25;;;;;;;3.63;1.20;;;;;;;;;;5134176;27;20244;-73
2021/03/15 04:37:52;;;;;;;2.25;1.23;;;;;;;;;;5136403;27;20179;-73
2021/03/15 04:40:18;;;;;;;1.83;1.42;;;;;;;;;;5136265;27;20633;-73
2021/03/15 04:42:44;;;;;;;2.55;1.40;;;;;;;;;;5136134;27;20198;-72
2021/03/15 04:45:11;;;;;;;2.20;1.35;;;;;;;;;;5136585;27;20270;-73
2021/03/15 04:47:38;;;;;;;2.53;1.30;;;;;;;;;;5136437;27;20580;-71
2021/03/15 04:50:04;;;;;;;2.00;1.55;;;;;;;;;;5136369;27;20261;-74
2021/03/15 04:52:31;;;;;;;1.20;1.10;;;;;;;;;;5135924;27;20210;-74
2021/03/15 04:54:57;;;;;;;1.90;1.13;;;;;;;;;;5136192;27;20348;-72
2021/03/15 04:57:24;;;;;;;1.37;1.27;;;;;;;;;;5136234;27;20190;-72
2021/03/15 04:59:50;;;;;;;6.88;1.25;;;;;;;;;;5135826;27;20474;-73
2021/03/15 05:02:18;;;;;;;2.20;1.40;;;;;;;;;;5135758;27;20324;-75
2021/03/15 05:04:44;;;;;;;4.70;1.30;;;;;;;;;;5136348;27;20619;-73
2021/03/15 05:07:11;;;;;;;2.75;1.20;;;;;;;;;;5136491;27;20202;-73
2021/03/15 05:09:38;;;;;;;2.80;1.50;;;;;;;;;;5136517;27;20203;-72
2021/03/15 05:12:04;;;;;;;2.90;1.50;;;;;;;;;;5136046;27;20275;-73
2021/03/15 05:14:32;;;;;;;2.00;1.75;;;;;;;;;;5136007;27;20203;-73
2021/03/15 05:16:58;;;;;;;1.55;1.20;;;;;;;;;;5136242;27;21013;-73
2021/03/15 05:19:25;;;;;;;4.85;1.20;;;;;;;;;;5135717;27;20660;-73
2021/03/15 05:21:51;;;;;;;3.45;1.77;;;;;;;;;;5135784;27;20272;-72
2021/03/15 05:24:17;;;;;;;3.85;1.35;;;;;;;;;;5143901;27;20191;-73
2021/03/15 05:26:44;;;;;;;1.52;1.42;;;;;;;;;;5156095;27;20214;-73
2021/03/15 05:29:12;;;;;;;3.05;2.40;;;;;;;;;;5155924;27;20188;-74
2021/03/15 05:31:38;;;;;;;1.60;1.45;;;;;;;;;;5156685;27;20199;-73
2021/03/15 05:34:06;;;;;;;3.83;1.77;;;;;;;;;;5154165;27;20199;-73
2021/03/15 05:36:32;;;;;;;4.03;1.85;;;;;;;;;;5156045;27;20231;-72
2021/03/15 05:38:58;;;;;;;3.95;1.65;;;;;;;;;;5155959;27;20218;-74
2021/03/15 05:41:30;;;;;;;1.30;1.20;;;;;;;;;;5156025;27;20236;-72
2021/03/15 05:44:11;;;;;;;3.13;1.92;;;;;;;;;;5156033;27;20181;-72
2021/03/15 05:46:54;;;;;;;5.85;2.17;;;;;;;;;;5155717;27;20182;-73
2021/03/15 05:49:31;;;;;;;1.75;1.40;;;;;;;;;;5156175;27;20177;-73
2021/03/15 05:52:04;;;;;;;2.88;1.60;;;;;;;;;;5155747;27;20288;-73
2021/03/15 05:54:48;;;;;;;2.97;1.83;;;;;;;;;;5155823;27;20200;-74
2021/03/15 05:57:27;;;;;;;1.48;1.38;;;;;;;;;;5153881;27;20193;-73
2021/03/15 06:00:06;;;;;;;1.73;1.45;;;;;;;;;;5134917;27;20205;-73
2021/03/15 06:02:41;;;;;;;2.55;2.13;;;;;;;;;;5135206;27;20276;-73
2021/03/15 06:05:17;;;;;;;2.55;2.00;;;;;;;;;;5154959;27;20200;-74
2021/03/15 06:07:46;;;;;;;2.47;2.28;;;;;;;;;;5156396;27;20198;-74
2021/03/15 06:10:15;;;;;;;1.85;1.55;;;;;;;;;;5155673;27;20218;-72
2021/03/15 06:12:46;;;;;;;1.98;1.60;;;;;;;;;;5155215;27;20208;-74
2021/03/15 06:15:14;;;;;;;2.17;1.65;;;;;;;;;;5154895;27;20201;-73
2021/03/15 06:17:40;;;;;;;8.35;1.65;;;;;;;;;;5155284;27;20199;-73
2021/03/15 06:20:06;;;;;;;2.55;1.65;;;;;;;;;;5155335;27;20521;-72
2021/03/15 06:22:33;;;;;;;3.55;1.50;;;;;;;;;;5155059;27;20212;-73
2021/03/15 06:25:00;;;;;;;1.80;1.70;;;;;;;;;;5155288;27;20237;-73
2021/03/15 06:27:27;;;;;;;3.50;2.78;;;;;;;;;;5154489;27;20197;-73
2021/03/15 06:29:53;;;;;;;2.83;2.05;;;;;;;;;;5154782;27;20192;-73
2021/03/15 06:32:20;;;;;;;1.40;1.30;;;;;;;;;;5154924;27;20182;-72
2021/03/15 06:34:47;;;;;;;2.50;1.20;;;;;;;;;;5154886;27;20449;-72
2021/03/15 06:37:13;;;;;;;3.58;1.95;;;;;;;;;;5154895;27;20686;-73
2021/03/15 06:39:40;;;;;;;12.52;1.52;;;;;;;;;;5154344;27;20227;-72
2021/03/15 06:42:08;;;;;;;1.60;1.50;;;;;;;;;;5154511;27;20208;-72
2021/03/15 06:44:34;;;;;;;2.90;1.75;;;;;;;;;;5154519;27;20213;-72
2021/03/15 06:47:01;;;;;;;1.40;1.30;;;;;;;;;;5154508;27;20196;-72
2021/03/15 06:49:27;;;;;;;2.03;1.48;;;;;;;;;;5154925;27;20635;-71
2021/03/15 06:52:00;;;;;;;1.42;1.33;;;;;;;;;;5154380;27;20194;-74
2021/03/15 06:54:26;;;;;;;2.47;1.77;;;;;;;;;;5154469;27;20287;-72
2021/03/15 06:57:07;;;;;;;1.52;1.42;;;;;;;;;;5153701;27;20555;-72
2021/03/15 06:59:44;;;;;;;0.90;0.80;;;;;;;;;;5153546;27;20296;-72
2021/03/15 07:02:10;;;;;;;2.30;1.75;;;;;;;;;;5154333;27;20715;-71
2021/03/15 07:04:37;;;;;;;1.30;1.00;;;;;;;;;;5154013;27;20202;-72
2021/03/15 07:07:04;;;;;;;2.13;1.52;;;;;;;;;;5154550;27;20292;-71
2021/03/15 07:09:33;;;;;;;2.35;1.27;;;;;;;;;;5154433;27;20200;-72
2021/03/15 07:12:01;;;;;;;2.17;1.65;;;;;;;;;;5153886;27;20303;-71
2021/03/15 07:14:27;;;;;;;1.50;1.25;;;;;;;;;;5154040;27;20189;-72
2021/03/15 07:16:56;;;;;;;1.95;1.70;;;;;;;;;;5153947;27;20189;-72
2021/03/15 07:19:22;;;;;;;2.72;2.28;;;;;;;;;;5153724;27;20351;-72
2021/03/15 07:21:50;;;;;;;2.20;1.60;;;;;;;;;;5154024;27;20265;-73
2021/03/15 07:24:16;;;;;;;1.75;1.27;;;;;;;;;;5153636;27;20201;-71
2021/03/15 07:26:44;;;;;;;2.83;2.25;;;;;;;;;;5154111;27;20312;-73
2021/03/15 07:29:11;;;;;;;3.88;1.75;;;;;;;;;;5153828;27;20197;-71
2021/03/15 07:31:37;;;;;;;2.58;1.60;;;;;;;;;;5154244;27;20258;-72
2021/03/15 07:34:14;;;;;;;2.25;1.10;;;;;;;;;;5153940;27;20288;-72
2021/03/15 07:36:51;;;;;;;2.28;1.35;;;;;;;;;;5153497;27;20236;-71
2021/03/15 07:39:18;;;;;;;2.40;1.23;;;;;;;;;;5153397;27;20221;-73
2021/03/15 07:41:45;;;;;;;1.50;1.20;;;;;;;;;;5153578;27;20281;-72
2021/03/15 07:44:15;;;;;;;3.28;1.75;;;;;;;;;;5153555;27;20209;-71
2021/03/15 07:46:42;;;;;;;2.17;1.98;;;;;;;;;;5153408;27;20293;-72
2021/03/15 07:49:20;;;;;;;2.22;1.98;;;;;;;;;;5153654;27;20735;-72
2021/03/15 07:51:50;;;;;;;1.75;1.50;;;;;;;;;;5153349;27;20533;-72
2021/03/15 07:54:22;;;;;;;1.80;1.70;;;;;;;;;;5153065;27;20264;-71
2021/03/15 07:56:48;;;;;;;3.83;2.47;;;;;;;;;;5153951;27;20594;-71
2021/03/15 07:59:15;;;;;;;3.30;2.50;;;;;;;;;;5153848;27;20254;-72
2021/03/15 08:01:42;;;;;;;4.88;3.70;;;;;;;;;;5153563;27;20447;-73
2021/03/15 08:04:08;;;;;;;3.50;3.20;;;;;;;;;;5153601;27;20250;-73
2021/03/15 08:06:35;;;;;;;6.85;3.40;;;;;;;;;;5153777;27;20197;-72
2021/03/15 08:09:01;;;;;;;3.42;2.65;;;;;;;;;;5154993;27;20619;-74
2021/03/15 08:11:28;;;;;;;2.53;2.15;;;;;;;;;;5157536;27;20615;-71
2021/03/15 08:13:55;;;;;;;4.22;2.63;;;;;;;;;;5158253;27;20205;-74
2021/03/15 08:16:21;;;;;;;4.90;2.70;;;;;;;;;;5157110;27;20225;-73
2021/03/15 08:18:48;;;;;;;4.00;2.63;;;;;;;;;;5158010;27;20222;-74
2021/03/15 08:21:22;;;;;;;3.47;2.50;;;;;;;;;;5157792;27;20233;-71
2021/03/15 08:23:48;;;;;;;8.77;2.65;;;;;;;;;;5157380;27;20277;-72
2021/03/15 08:26:15;;;;;;;2.90;2.30;;;;;;;;;;5157483;27;20186;-72
2021/03/15 08:28:43;;;;;;;3.17;2.35;;;;;;;;;;5157799;27;20197;-72
2021/03/15 08:31:13;;;;;;;2.92;2.47;;;;;;;;;;5157958;27;20232;-72
2021/03/15 08:33:40;;;;;;;4.78;2.40;;;;;;;;;;5157619;27;20198;-73
2021/03/15 08:36:08;;;;;;;4.22;2.28;;;;;;;;;;5156586;27;20240;-71
2021/03/15 08:38:35;;;;;;;2.88;2.08;;;;;;;;;;5157303;27;20867;-72
2021/03/15 08:41:02;;;;;;;12.98;2.20;;;;;;;;;;5157447;27;20332;-73
2021/03/15 08:43:31;;;;;;;3.97;2.83;;;;;;;;;;5157184;27;20210;-72
2021/03/15 08:45:58;;;;;;;4.07;2.40;;;;;;;;;;5157035;27;20229;-71
2021/03/15 08:48:43;;;;;;;3.00;1.67;;;;;;;;;;5156852;27;20285;-71
2021/03/15 08:51:09;;;;;;;2.90;1.80;;;;;;;;;;5156932;27;20230;-73
2021/03/15 08:53:51;;;;;;;2.33;2.08;;;;;;;;;;5157062;27;20202;-73
2021/03/15 08:56:48;;;;;;;2.05;1.85;;;;;;;;;;5157015;27;20562;-71
2021/03/15 08:59:14;;;;;;;1.67;1.35;;;;;;;;;;5073277;28;20205;-71
2021/03/15 09:01:51;;;;;;;2.72;1.63;;;;;;;;;;5137820;27;20212;-71
2021/03/15 09:04:33;;;;;;;2.03;1.83;;;;;;;;;;5157445;27;20193;-71
2021/03/15 09:07:00;;;;;;;4.40;2.42;;;;;;;;;;5156999;27;20601;-72
2021/03/15 09:09:26;;;;;;;7.60;1.30;;;;;;;;;;5156626;27;20194;-73
2021/03/15 09:11:55;;;;;;;3.17;1.20;;;;;;;;;;5156647;27;20198;-71
2021/03/15 09:14:37;;;;;;;1.00;0.90;;;;;;;;;;5156547;27;20631;-71
2021/03/15 09:17:21;;;;;;;2.13;1.15;;;;;;;;;;5156364;27;20209;-70
2021/03/15 09:19:49;;;;;;;2.15;1.35;;;;;;;;;;5155686;27;20282;-72
2021/03/15 09:22:20;;;;;;;1.90;1.30;;;;;;;;;;5156011;27;20204;-72
2021/03/15 09:24:47;;;;;;;1.38;1.20;;;;;;;;;;5156980;27;20209;-72
2021/03/15 09:27:37;;;;;;;1.63;1.10;;;;;;;;;;5156075;27;20208;-71
2021/03/15 09:30:05;;;;;;;2.00;1.17;;;;;;;;;;5135073;27;20197;-73
2021/03/15 09:32:32;;;;;;;2.20;1.80;;;;;;;;;;5155960;27;20182;-72
2021/03/15 09:35:12;;;;;;;1.08;0.82;;;;;;;;;;5156323;27;20217;-72
2021/03/15 09:37:39;;;;;;;1.33;1.23;;;;;;;;;;5156095;27;20209;-71
2021/03/15 09:40:06;;;;;;;1.52;1.42;;;;;;;;;;5155647;27;20253;-72
2021/03/15 09:42:37;;;;;;;2.40;1.33;;;;;;;;;;5156108;27;20313;-69
2021/03/15 09:45:04;;;;;;;1.77;1.05;;;;;;;;;;5156296;27;20203;-71
2021/03/15 09:47:31;;;;;;;2.42;1.33;;;;;;;;;;5156371;27;20184;-70
2021/03/15 09:49:57;;;;;;;1.88;1.23;;;;;;;;;;5155898;27;20227;-71
2021/03/15 09:52:24;;;;;;;1.60;1.10;;;;;;;;;;5156204;27;20621;-71
2021/03/15 09:54:52;;;;;;;2.95;1.40;;;;;;;;;;5155838;27;20215;-71
2021/03/15 09:57:18;;;;;;;1.55;1.08;;;;;;;;;;5155713;27;20666;-72
2021/03/15 09:59:44;;;;;;;1.10;0.90;;;;;;;;;;5155311;27;20224;-71
2021/03/15 10:02:13;;;;;;;19.60;1.15;;;;;;;;;;5156101;27;20206;-72
2021/03/15 10:04:40;;;;;;;2.55;1.58;;;;;;;;;;5155145;27;20203;-71
2021/03/15 10:07:07;;;;;;;1.25;1.15;;;;;;;;;;5156465;27;20199;-73
2021/03/15 10:09:38;;;;;;;1.13;1.02;;;;;;;;;;5155296;27;20226;-71
2021/03/15 10:12:05;;;;;;;1.90;0.90;;;;;;;;;;5155190;27;20193;-72
2021/03/15 10:14:31;;;;;;;1.95;1.20;;;;;;;;;;5155173;27;20247;-72
2021/03/15 10:16:58;;;;;;;1.95;1.50;;;;;;;;;;5155484;27;20628;-72
2021/03/15 10:19:25;;;;;;;1.80;1.10;;;;;;;;;;5155307;27;20563;-73
2021/03/15 10:21:51;;;;;;;1.70;1.15;;;;;;;;;;5155032;27;20199;-74
2021/03/15 10:24:35;;;;;;;1.20;0.90;;;;;;;;;;5155201;27;20211;-72
2021/03/15 10:27:01;;;;;;;1.58;1.02;;;;;;;;;;5154857;27;20226;-72
2021/03/15 10:29:27;;;;;;;0.82;0.60;;;;;;;;;;5154911;27;20217;-72
2021/03/15 10:31:54;;;;;;;2.35;1.45;;;;;;;;;;5155162;27;20632;-73
2021/03/15 10:34:23;;;;;;;1.15;0.95;;;;;;;;;;5155035;27;20530;-71
2021/03/15 10:36:50;;;;;;;1.15;1.00;;;;;;;;;;5154806;27;20231;-73
2021/03/15 10:39:16;;;;;;;1.20;0.73;;;;;;;;;;5154658;27;20224;-72
2021/03/15 10:41:43;;;;;;;2.35;1.00;;;;;;;;;;5154307;27;20256;-73
2021/03/15 10:44:10;;;;;;;1.95;1.45;;;;;;;;;;5154509;27;20196;-72
2021/03/15 10:46:44;;;;;;;1.30;0.90;;;;;;;;;;5154506;27;20197;-72
2021/03/15 10:49:17;;;;;;;1.60;1.10;;;;;;;;;;5154490;27;20204;-73
2021/03/15 10:51:45;;;;;;;1.85;1.00;;;;;;;;;;5154122;27;20655;-72
2021/03/15 10:54:11;;;;;;;1.30;1.10;;;;;;;;;;5154072;27;20202;-71
2021/03/15 10:56:37;;;;;;;1.23;1.13;;;;;;;;;;5154128;27;20208;-72
2021/03/15 10:59:05;;;;;;;0.90;0.77;;;;;;;;;;5154467;27;20579;-73
2021/03/15 11:01:31;;;;;;;1.88;1.25;;;;;;;;;;5153679;27;20202;-73
2021/03/15 11:04:09;;;;;;;0.80;0.70;;;;;;;;;;5154073;27;20203;-72
2021/03/15 11:06:35;;;;;;;1.20;0.70;;;;;;;;;;5154488;27;20629;-73
2021/03/15 11:09:01;;;;;;;0.90;0.70;;;;;;;;;;5154390;27;20502;-73
2021/03/15 11:11:30;;;;;;;0.70;0.50;;;;;;;;;;5154339;27;20205;-73
2021/03/15 11:13:57;;;;;;;3.28;0.75;;;;;;;;;;5154246;27;20652;-72
2021/03/15 11:16:27;;;;;;;1.80;1.00;;;;;;;;;;5154266;27;20282;-72
2021/03/15 11:19:06;;;;;;;0.70;0.57;;;;;;;;;;5154416;27;20243;-74
2021/03/15 11:21:33;;;;;;;1.48;1.02;;;;;;;;;;5154495;27;20506;-73
2021/03/15 11:24:00;;;;;;;1.42;0.90;;;;;;;;;;5154085;27;20670;-72
2021/03/15 11:26:26;;;;;;;1.10;0.80;;;;;;;;;;5154163;27;20554;-72
2021/03/15 11:28:53;;;;;;;1.60;1.25;;;;;;;;;;5153574;27;20247;-73
2021/03/15 11:31:20;;;;;;;1.20;0.90;;;;;;;;;;5153635;27;20205;-70
2021/03/15 11:33:51;;;;;;;1.00;0.90;;;;;;;;;;5154057;27;20197;-73
2021/03/15 11:36:19;;;;;;;1.20;1.00;;;;;;;;;;5153555;27;20233;-71
2021/03/15 11:38:48;;;;;;;1.42;1.00;;;;;;;;;;5153199;27;20197;-70
2021/03/15 11:41:16;;;;;;;0.95;0.85;;;;;;;;;;5153556;27;20636;-72
2021/03/15 11:43:42;;;;;;;1.10;1.00;;;;;;;;;;5152873;27;20229;-71
2021/03/15 11:46:08;;;;;;;1.00;0.90;;;;;;;;;;5153552;27;20205;-73
2021/03/15 11:48:34;;;;;;;1.00;0.80;;;;;;;;;;5153832;27;20178;-72
2021/03/15 11:51:01;;;;;;;0.80;0.70;;;;;;;;;;5152808;27;20194;-72
2021/03/15 11:53:27;;;;;;;1.65;1.50;;;;;;;;;;5153084;27;20559;-73
2021/03/15 11:55:53;;;;;;;1.35;0.90;;;;;;;;;;5153408;27;20201;-72
2021/03/15 11:58:19;;;;;;;0.93;0.82;;;;;;;;;;5153155;27;20250;-70
2021/03/15 12:00:46;;;;;;;1.25;0.82;;;;;;;;;;5153129;27;20258;-72
2021/03/15 12:03:12;;;;;;;0.90;0.70;;;;;;;;;;5153381;27;20581;-73
2021/03/15 12:05:38;;;;;;;1.35;1.13;;;;;;;;;;5153275;27;20206;-72
2021/03/15 12:08:05;;;;;;;1.42;0.93;;;;;;;;;;5153250;27;20265;-73
2021/03/15 12:10:32;;;;;;;0.90;0.60;;;;;;;;;;5153705;27;20195;-71
2021/03/15 12:12:58;;;;;;;0.80;0.70;;;;;;;;;;5153507;27;20206;-72
2021/03/15 12:15:24;;;;;;;1.13;0.98;;;;;;;;;;5153193;27;20204;-72
2021/03/15 12:17:51;;;;;;;1.70;0.80;;;;;;;;;;5153237;27;20199;-72
2021/03/15 12:20:17;;;;;;;1.20;0.80;;;;;;;;;;5152995;27;20224;-72
2021/03/15 12:22:43;;;;;;;6.63;0.75;;;;;;;;;;5154089;27;20211;-73
2021/03/15 12:25:10;;;;;;;1.20;0.93;;;;;;;;;;5154052;27;20781;-72
2021/03/15 12:27:36;;;;;;;1.42;1.20;;;;;;;;;;5153512;27;20199;-72
2021/03/15 12:30:03;;;;;;;0.90;0.70;;;;;;;;;;5153724;27;20319;-72
2021/03/15 12:32:29;;;;;;;2.13;1.40;;;;;;;;;;5153117;27;20198;-72
2021/03/15 12:34:55;;;;;;;1.00;0.90;;;;;;;;;;5153231;27;20666;-73
2021/03/15 12:37:21;;;;;;;2.35;1.88;;;;;;;;;;5153403;27;20178;-71
2021/03/15 12:39:48;;;;;;;2.28;1.30;;;;;;;;;;5152786;27;20434;-73
2021/03/15 12:42:15;;;;;;;1.30;1.10;;;;;;;;;;5153517;27;20198;-72
2021/03/15 12:44:41;;;;;;;1.40;0.95;;;;;;;;;;5153337;27;20631;-73
2021/03/15 12:47:07;;;;;;;1.98;0.93;;;;;;;;;;5153314;27;20197;-72
2021/03/15 12:49:34;;;;;;;1.05;0.70;;;;;;;;;;5153325;27;20567;-73
2021/03/15 12:52:00;;;;;;;1.80;1.05;;;;;;;;;;5153437;27;20288;-72
2021/03/15 12:54:26;;;;;;;1.35;0.95;;;;;;;;;;5156580;27;20207;-72
2021/03/15 12:56:52;;;;;;;2.30;0.95;;;;;;;;;;5155648;27;20310;-72
2021/03/15 12:59:19;;;;;;;1.80;1.05;;;;;;;;;;5156282;27;20225;-73
2021/03/15 13:01:45;;;;;;;1.38;1.20;;;;;;;;;;5157030;27;20222;-72
2021/03/15 13:04:11;;;;;;;1.20;1.08;;;;;;;;;;5156629;27;20261;-71
2021/03/15 13:06:37;;;;;;;1.90;1.40;;;;;;;;;;5156430;27;20194;-73
2021/03/15 13:09:04;;;;;;;1.85;1.30;;;;;;;;;;5156556;27;20189;-73
2021/03/15 13:11:30;;;;;;;0.75;0.75;;;;;;;;;;5156431;27;20226;-73
2021/03/15 13:13:56;;;;;;;1.33;1.10;;;;;;;;;;5156355;27;20210;-73
2021/03/15 13:16:23;;;;;;;1.20;0.70;;;;;;;;;;5156454;27;20194;-72
2021/03/15 13:18:49;;;;;;;0.93;0.82;;;;;;;;;;5156651;27;20198;-73
2021/03/15 13:21:15;;;;;;;2.58;1.45;;;;;;;;;;5156550;27;20632;-72
2021/03/15 13:23:42;;;;;;;1.70;1.13;;;;;;;;;;5156695;27;20186;-72
2021/03/15 13:26:08;;;;;;;1.50;1.20;;;;;;;;;;5156025;27;20202;-73
2021/03/15 13:28:34;;;;;;;1.50;1.20;;;;;;;;;;5156361;27;20210;-71
2021/03/15 13:31:00;;;;;;;1.55;1.45;;;;;;;;;;5155648;27;20250;-70
2021/03/15 13:33:27;;;;;;;2.03;1.40;;;;;;;;;;5155931;27;20203;-71
2021/03/15 13:35:54;;;;;;;1.10;0.90;;;;;;;;;;5155875;27;20231;-73
2021/03/15 13:38:20;;;;;;;3.88;2.78;;;;;;;;;;5155851;27;20199;-72
2021/03/15 13:40:46;;;;;;;1.27;1.15;;;;;;;;;;5156184;27;20212;-72
2021/03/15 13:43:12;;;;;;;0.95;0.82;;;;;;;;;;5156266;27;20605;-72
2021/03/15 13:45:38;;;;;;;0.95;0.85;;;;;;;;;;5156135;27;20204;-72
2021/03/15 13:48:05;;;;;;;2.38;1.02;;;;;;;;;;5155307;27;20277;-74
2021/03/15 13:50:32;;;;;;;1.45;1.27;;;;;;;;;;5156017;27;20289;-73
2021/03/15 13:52:58;;;;;;;1.38;1.00;;;;;;;;;;5155825;27;20205;-72
2021/03/15 13:55:24;;;;;;;1.52;1.05;;;;;;;;;;5155795;27;20694;-72
2021/03/15 13:57:50;;;;;;;1.23;1.13;;;;;;;;;;5155817;27;20194;-72
2021/03/15 14:00:17;;;;;;;1.15;1.05;;;;;;;;;;5155230;27;20216;-73
2021/03/15 14:02:43;;;;;;;1.60;1.50;;;;;;;;;;5155852;27;20206;-73
2021/03/15 14:05:09;;;;;;;1.40;1.10;;;;;;;;;;5155434;27;20682;-71
2021/03/15 14:07:36;;;;;;;1.40;1.13;;;;;;;;;;5155108;27;20499;-73
2021/03/15 14:10:03;;;;;;;2.67;1.40;;;;;;;;;;5154825;27;20276;-73
2021/03/15 14:12:29;;;;;;;1.13;1.00;;;;;;;;;;5155428;27;20304;-74
2021/03/15 14:14:55;;;;;;;1.55;1.15;;;;;;;;;;5155629;27;20405;-72
2021/03/15 14:17:21;;;;;;;1.73;1.63;;;;;;;;;;5154921;27;20198;-73
2021/03/15 14:19:47;;;;;;;1.58;1.27;;;;;;;;;;5154953;27;20597;-74
2021/03/15 14:22:14;;;;;;;1.10;0.90;;;;;;;;;;5154873;27;20296;-74
2021/03/15 14:24:41;;;;;;;1.80;1.33;;;;;;;;;;5154905;27;20213;-73
2021/03/15 14:27:07;;;;;;;1.88;1.10;;;;;;;;;;5155084;27;20535;-75
2021/03/15 14:29:34;;;;;;;1.10;0.80;;;;;;;;;;5154573;27;20193;-73
2021/03/15 14:32:00;;;;;;;0.95;0.82;;;;;;;;;;5154642;27;20182;-74
2021/03/15 14:34:26;;;;;;;3.42;1.45;;;;;;;;;;5154977;27;20198;-73
2021/03/15 14:36:52;;;;;;;2.03;1.20;;;;;;;;;;5154787;27;20325;-73
2021/03/15 14:39:19;;;;;;;2.03;1.13;;;;;;;;;;5154368;27;20240;-72
2021/03/15 14:41:47;;;;;;;1.25;1.15;;;;;;;;;;5155131;27;20207;-72
2021/03/15 14:44:13;;;;;;;1.80;1.33;;;;;;;;;;5154372;27;20640;-74
2021/03/15 14:46:40;;;;;;;1.42;1.15;;;;;;;;;;5154824;27;20619;-73
2021/03/15 14:49:06;;;;;;;1.95;1.08;;;;;;;;;;5154641;27;20722;-72